Time;durP1;ratioP1;P1;durP2;ratioP2;P2;SDS_P1;SDS_P2;PMS_P1;PMS_P2;Temp;Humidity;BMP_temperature;BMP_pressure;BME280_temperature;BME280_humidity;BME280_pressure;Samples;Min_cycle;Max_cycle;Signal;HPM_P1;HPM_P2
2022/04/21 00:06:44;;;;;;;7.63;3.95;;;;;;;;;;5094548;28;20023;-70
2022/04/21 00:09:10;;;;;;;4.40;3.42;;;;;;;;;;5093966;28;20020;-69
2022/04/21 00:11:36;;;;;;;6.88;3.63;;;;;;;;;;5093891;28;20024;-70
2022/04/21 00:14:01;;;;;;;5.70;3.50;;;;;;;;;;5093838;28;20386;-70
2022/04/21 00:16:27;;;;;;;8.63;4.07;;;;;;;;;;5093774;28;20032;-69
2022/04/21 00:18:53;;;;;;;8.52;3.72;;;;;;;;;;5093806;28;20020;-69
2022/04/21 00:21:19;;;;;;;10.20;4.47;;;;;;;;;;5093791;28;20020;-70
2022/04/21 00:23:45;;;;;;;8.90;3.85;;;;;;;;;;5093735;28;20474;-69
2022/04/21 00:26:13;;;;;;;9.80;3.58;;;;;;;;;;5093707;28;20023;-70
2022/04/21 00:28:38;;;;;;;6.30;4.07;;;;;;;;;;5093664;28;20394;-70
2022/04/21 00:31:04;;;;;;;6.90;3.70;;;;;;;;;;5093812;28;20028;-70
2022/04/21 00:33:31;;;;;;;6.55;3.65;;;;;;;;;;5093556;28;20024;-70
2022/04/21 00:35:57;;;;;;;6.28;3.80;;;;;;;;;;5093639;28;20035;-70
2022/04/21 00:38:23;;;;;;;6.90;4.10;;;;;;;;;;5093490;28;20028;-70
2022/04/21 00:40:49;;;;;;;11.00;4.10;;;;;;;;;;5092244;28;20067;-70
2022/04/21 00:43:15;;;;;;;4.93;3.85;;;;;;;;;;5093461;28;20020;-70
2022/04/21 00:45:41;;;;;;;7.80;4.78;;;;;;;;;;5093386;28;20390;-70
2022/04/21 00:48:08;;;;;;;7.90;3.97;;;;;;;;;;5091929;28;20028;-69
2022/04/21 00:50:37;;;;;;;5.68;4.38;;;;;;;;;;5091895;28;20073;-69
2022/04/21 00:53:03;;;;;;;6.15;4.32;;;;;;;;;;5093245;28;20024;-70
2022/04/21 00:55:30;;;;;;;10.65;5.00;;;;;;;;;;5093503;28;20489;-70
2022/04/21 00:57:57;;;;;;;8.18;5.05;;;;;;;;;;5093264;28;20527;-70
2022/04/21 01:00:23;;;;;;;10.48;4.93;;;;;;;;;;5093280;28;20020;-70
2022/04/21 01:02:49;;;;;;;7.00;5.50;;;;;;;;;;5093262;28;20069;-70
2022/04/21 01:05:34;;;;;;;6.95;4.50;;;;;;;;;;5093276;28;20024;-70
2022/04/21 01:08:01;;;;;;;6.38;5.15;;;;;;;;;;5093417;28;20070;-70
2022/04/21 01:10:28;;;;;;;9.57;5.63;;;;;;;;;;5093181;28;20039;-70
2022/04/21 01:12:54;;;;;;;13.57;5.07;;;;;;;;;;5093038;28;20036;-69
2022/04/21 01:15:20;;;;;;;8.45;5.22;;;;;;;;;;5093132;28;20099;-70
2022/04/21 01:17:46;;;;;;;9.05;5.22;;;;;;;;;;5093131;28;20034;-70
2022/04/21 01:20:14;;;;;;;8.70;4.82;;;;;;;;;;5093108;28;20024;-70
2022/04/21 01:22:40;;;;;;;6.55;5.03;;;;;;;;;;5093042;28;20500;-70
2022/04/21 01:25:06;;;;;;;10.50;5.22;;;;;;;;;;5093132;28;20099;-70
2022/04/21 01:27:34;;;;;;;8.25;5.18;;;;;;;;;;5093006;28;20031;-70
2022/04/21 01:30:02;;;;;;;6.72;4.50;;;;;;;;;;5091623;28;20071;-69
2022/04/21 01:32:28;;;;;;;8.38;4.10;;;;;;;;;;5092821;28;20427;-69
2022/04/21 01:34:53;;;;;;;9.40;4.55;;;;;;;;;;5092972;28;20032;-70
2022/04/21 01:42:51;;;;;;;8.30;4.78;;;;;;;;;;5092653;28;20111;-70
2022/04/21 01:45:17;;;;;;;13.35;5.43;;;;;;;;;;5092851;28;20063;-69
2022/04/21 01:47:43;;;;;;;23.70;9.10;;;;;;;;;;5092854;28;20448;-70
2022/04/21 01:50:09;;;;;;;15.82;7.68;;;;;;;;;;5091520;28;20028;-70
2022/04/21 01:52:36;;;;;;;13.07;6.50;;;;;;;;;;5092540;28;20080;-70
2022/04/21 01:55:03;;;;;;;16.48;7.88;;;;;;;;;;5092736;28;20024;-70
2022/04/21 01:57:29;;;;;;;13.73;6.57;;;;;;;;;;5091456;28;20169;-70
2022/04/21 01:59:55;;;;;;;13.25;6.97;;;;;;;;;;5095555;28;20055;-69
2022/04/21 02:02:21;;;;;;;18.00;7.75;;;;;;;;;;5096384;28;20028;-70
2022/04/21 02:04:46;;;;;;;15.50;7.82;;;;;;;;;;5096369;28;20039;-70
2022/04/21 02:07:14;;;;;;;14.65;7.60;;;;;;;;;;5096295;28;20394;-70
2022/04/21 02:09:40;;;;;;;16.02;8.00;;;;;;;;;;5096264;28;20025;-70
2022/04/21 02:12:06;;;;;;;16.58;8.57;;;;;;;;;;5094818;28;20539;-70
2022/04/21 02:14:32;;;;;;;15.90;9.23;;;;;;;;;;5094831;28;20546;-70
2022/04/21 02:16:58;;;;;;;14.30;8.13;;;;;;;;;;5096111;28;20095;-70
2022/04/21 02:19:24;;;;;;;14.48;7.22;;;;;;;;;;5096053;28;20020;-69
2022/04/21 02:21:50;;;;;;;11.90;6.93;;;;;;;;;;5095967;28;20035;-69
2022/04/21 02:24:16;;;;;;;10.35;6.45;;;;;;;;;;5095933;28;20031;-69
2022/04/21 02:26:42;;;;;;;10.15;6.63;;;;;;;;;;5096007;28;20496;-69
2022/04/21 02:29:08;;;;;;;11.27;6.05;;;;;;;;;;5095894;28;20039;-69
2022/04/21 02:31:33;;;;;;;10.60;6.38;;;;;;;;;;5095735;28;20036;-69
2022/04/21 02:33:59;;;;;;;7.53;5.40;;;;;;;;;;5095753;28;20386;-70
2022/04/21 02:36:25;;;;;;;9.07;5.40;;;;;;;;;;5094492;28;20032;-69
2022/04/21 02:38:51;;;;;;;7.90;5.18;;;;;;;;;;5095694;28;20020;-69
2022/04/21 02:41:17;;;;;;;9.00;5.53;;;;;;;;;;5095659;28;20047;-69
2022/04/21 02:43:43;;;;;;;12.55;6.88;;;;;;;;;;5095586;28;20020;-69
2022/04/21 02:46:09;;;;;;;7.97;5.63;;;;;;;;;;5095528;28;20030;-69
2022/04/21 02:48:35;;;;;;;9.77;5.43;;;;;;;;;;5095537;28;20130;-69
2022/04/21 02:51:01;;;;;;;9.18;5.95;;;;;;;;;;5095129;28;20044;-69
2022/04/21 02:59:00;;;;;;;8.50;6.60;;;;;;;;;;5095104;28;20390;-69
2022/04/21 03:01:26;;;;;;;9.88;6.40;;;;;;;;;;5095261;28;20016;-69
2022/04/21 03:03:54;;;;;;;10.88;6.75;;;;;;;;;;5095232;28;20028;-70
2022/04/21 03:06:20;;;;;;;11.65;6.85;;;;;;;;;;5095151;28;20390;-70
2022/04/21 03:08:46;;;;;;;6.68;5.78;;;;;;;;;;5095110;28;20024;-70
2022/04/21 03:11:12;;;;;;;11.68;6.25;;;;;;;;;;5094987;28;20150;-70
2022/04/21 03:13:38;;;;;;;10.10;6.82;;;;;;;;;;5095066;28;20028;-70
2022/04/21 03:16:04;;;;;;;7.63;6.15;;;;;;;;;;5094929;28;20103;-69
2022/04/21 03:18:30;;;;;;;8.57;6.25;;;;;;;;;;5094886;28;20032;-70
2022/04/21 03:26:28;;;;;;;8.93;6.57;;;;;;;;;;5093527;28;20099;-70
2022/04/21 03:28:54;;;;;;;8.23;6.43;;;;;;;;;;5093348;28;20020;-70
2022/04/21 03:31:20;;;;;;;9.85;6.15;;;;;;;;;;5094509;28;20389;-70
2022/04/21 03:33:46;;;;;;;8.95;5.88;;;;;;;;;;5094616;28;20029;-69
2022/04/21 03:36:12;;;;;;;11.15;5.57;;;;;;;;;;5094589;28;20012;-70
2022/04/21 03:38:39;;;;;;;9.18;6.60;;;;;;;;;;5076523;28;20031;-70
2022/04/21 03:41:05;;;;;;;9.18;6.40;;;;;;;;;;5094689;28;20020;-70
2022/04/21 03:43:31;;;;;;;8.95;6.03;;;;;;;;;;5094423;28;20029;-69
2022/04/21 03:45:57;;;;;;;8.80;6.32;;;;;;;;;;5094327;28;20151;-70
2022/04/21 03:48:23;;;;;;;10.35;6.85;;;;;;;;;;5094340;28;20097;-69
2022/04/21 03:50:49;;;;;;;10.65;6.78;;;;;;;;;;5094011;28;20070;-70
2022/04/21 03:53:16;;;;;;;10.23;7.28;;;;;;;;;;5094357;28;20043;-70
2022/04/21 03:55:42;;;;;;;10.60;6.78;;;;;;;;;;5094216;28;20016;-70
2022/04/21 03:58:08;;;;;;;7.53;6.15;;;;;;;;;;5094115;28;20031;-70
2022/04/21 04:00:34;;;;;;;11.48;6.72;;;;;;;;;;5092905;28;20032;-70
2022/04/21 04:02:59;;;;;;;9.82;7.30;;;;;;;;;;5094048;28;20036;-69
2022/04/21 04:05:25;;;;;;;8.95;6.40;;;;;;;;;;5094045;28;20401;-70
2022/04/21 04:10:52;;;;;;;12.02;7.53;;;;;;;;;;5093689;28;20036;-69
2022/04/21 04:13:19;;;;;;;10.35;7.57;;;;;;;;;;5092691;28;20049;-69
2022/04/21 04:15:48;;;;;;;11.82;7.40;;;;;;;;;;5093836;28;20029;-69
2022/04/21 04:18:15;;;;;;;14.50;8.10;;;;;;;;;;5093805;28;20024;-69
2022/04/21 04:20:41;;;;;;;13.57;8.05;;;;;;;;;;5092461;28;20497;-69
2022/04/21 04:23:07;;;;;;;13.27;8.50;;;;;;;;;;5093304;28;20028;-69
2022/04/21 04:25:33;;;;;;;16.55;7.68;;;;;;;;;;5093674;28;20031;-71
2022/04/21 04:27:59;;;;;;;12.98;7.85;;;;;;;;;;5093653;28;20035;-69
2022/04/21 04:30:25;;;;;;;12.32;6.97;;;;;;;;;;5093656;28;20077;-69
2022/04/21 04:32:51;;;;;;;11.00;6.47;;;;;;;;;;5093514;28;20032;-69
2022/04/21 04:35:16;;;;;;;12.77;8.10;;;;;;;;;;5093611;28;20024;-69
2022/04/21 04:37:42;;;;;;;10.63;6.95;;;;;;;;;;5092222;28;20024;-69
2022/04/21 04:40:09;;;;;;;13.90;7.55;;;;;;;;;;5093448;28;20077;-69
2022/04/21 04:42:35;;;;;;;9.75;6.97;;;;;;;;;;5093677;28;20489;-69
2022/04/21 04:47:46;;;;;;;9.68;6.32;;;;;;;;;;5093160;28;20028;-69
2022/04/21 04:50:12;;;;;;;9.48;6.80;;;;;;;;;;5092142;28;20028;-69
2022/04/21 04:52:38;;;;;;;15.75;7.93;;;;;;;;;;5093090;28;20079;-69
2022/04/21 04:55:08;;;;;;;10.35;7.07;;;;;;;;;;5091988;28;20130;-69
2022/04/21 04:57:34;;;;;;;11.40;6.82;;;;;;;;;;5093286;28;20048;-69
2022/04/21 05:00:00;;;;;;;12.07;7.05;;;;;;;;;;5093259;28;20055;-69
2022/04/21 05:02:25;;;;;;;11.32;6.72;;;;;;;;;;5093209;28;20486;-69
2022/04/21 05:04:51;;;;;;;10.82;7.28;;;;;;;;;;5093207;28;20063;-69
2022/04/21 05:07:18;;;;;;;12.80;7.35;;;;;;;;;;5091997;28;20163;-70
2022/04/21 05:09:44;;;;;;;8.63;6.80;;;;;;;;;;5093237;28;20025;-70
2022/04/21 05:12:10;;;;;;;10.35;6.43;;;;;;;;;;5093103;28;20096;-70
2022/04/21 05:14:36;;;;;;;7.85;6.25;;;;;;;;;;5093388;28;20169;-70
2022/04/21 05:17:02;;;;;;;10.25;6.72;;;;;;;;;;5093110;28;20020;-69
2022/04/21 05:19:28;;;;;;;8.93;6.28;;;;;;;;;;5093110;28;20114;-69
2022/04/21 05:21:54;;;;;;;9.73;6.43;;;;;;;;;;5091831;28;20058;-70
2022/04/21 05:24:21;;;;;;;11.02;6.63;;;;;;;;;;5093066;28;20032;-69
2022/04/21 05:26:47;;;;;;;9.70;6.85;;;;;;;;;;5093051;28;20108;-69
2022/04/21 05:32:00;;;;;;;8.45;6.25;;;;;;;;;;5092725;28;20062;-69
2022/04/21 05:34:27;;;;;;;10.55;7.05;;;;;;;;;;5094904;28;20020;-69
2022/04/21 05:36:53;;;;;;;10.23;6.38;;;;;;;;;;5096815;28;20074;-69
2022/04/21 05:39:19;;;;;;;12.20;6.47;;;;;;;;;;5095579;28;20024;-69
2022/04/21 05:41:45;;;;;;;8.77;5.68;;;9.20;99.90;;;;;;5096743;28;20032;-69
2022/04/21 05:44:11;;;;;;;8.02;5.30;;;9.90;99.90;;;;;;5096717;28;20024;-69
2022/04/21 05:46:37;;;;;;;11.95;5.53;;;10.80;99.90;;;;;;5096854;28;20035;-69
2022/04/21 05:49:03;;;;;;;7.25;4.82;;;11.90;99.90;;;;;;5096563;28;20036;-69
2022/04/21 05:51:29;;;;;;;8.18;4.55;;;12.90;99.90;;;;;;5096335;28;20044;-69
2022/04/21 05:53:58;;;;;;;9.20;4.47;;;13.30;99.90;;;;;;5096664;28;20028;-70
2022/04/21 05:56:24;;;;;;;11.00;5.00;;;14.60;99.90;;;;;;5096228;28;20099;-70
2022/04/21 05:58:50;;;;;;;8.20;4.40;;;15.00;99.90;;;;;;5096324;28;20036;-69
2022/04/21 06:01:16;;;;;;;6.95;5.22;;;15.20;99.00;;;;;;5096408;28;20564;-69
2022/04/21 06:03:41;;;;;;;8.23;5.22;;;14.40;98.80;;;;;;5096331;28;20056;-69
2022/04/21 06:06:09;;;;;;;8.63;4.82;;;14.60;99.40;;;;;;5096224;28;20036;-69
2022/04/21 06:08:35;;;;;;;6.82;4.20;;;14.50;98.10;;;;;;5096087;28;20020;-69
2022/04/21 06:11:01;;;;;;;6.85;4.80;;;14.20;98.10;;;;;;5096008;28;20031;-69
2022/04/21 06:13:27;;;;;;;6.35;4.50;;;14.30;98.80;;;;;;5094832;28;20021;-69
2022/04/21 06:15:53;;;;;;;4.80;4.30;;;15.20;97.60;;;;;;5096239;28;20016;-69
2022/04/21 06:18:20;;;;;;;6.28;4.40;;;15.60;95.30;;;;;;5096019;28;20490;-69
2022/04/21 06:20:47;;;;;;;6.55;3.97;;;16.70;92.80;;;;;;5096070;28;20032;-70
2022/04/21 06:23:13;;;;;;;5.65;4.10;;;17.10;90.60;;;;;;5096106;28;20539;-69
2022/04/21 06:25:39;;;;;;;5.78;4.25;;;16.80;89.20;;;;;;5095788;28;20024;-69
2022/04/21 06:28:05;;;;;;;5.32;4.70;;;17.50;87.60;;;;;;5095761;28;20130;-69
2022/04/21 06:30:31;;;;;;;6.50;4.40;;;16.80;84.70;;;;;;5095911;28;20055;-69
2022/04/21 06:32:58;;;;;;;12.82;4.85;;;17.00;85.80;;;;;;5094364;28;20024;-69
2022/04/21 06:35:25;;;;;;;7.90;4.38;;;17.70;84.50;;;;;;5095672;28;20047;-69
2022/04/21 06:37:51;;;;;;;5.30;3.80;;;18.10;81.70;;;;;;5095576;28;20024;-69
2022/04/21 06:40:16;;;;;;;7.78;4.07;;;16.30;82.40;;;;;;5095503;28;20024;-69
2022/04/21 06:42:42;;;;;;;6.70;4.15;;;15.80;89.10;;;;;;5095776;28;20101;-69
2022/04/21 06:48:10;;;;;;;5.22;4.25;;;17.30;84.10;;;;;;5095260;28;20024;-69
2022/04/21 06:50:37;;;;;;;5.18;3.83;;;18.20;80.10;;;;;;5095331;28;20024;-70
2022/04/21 06:53:04;;;;;;;6.20;4.00;;;17.10;79.10;;;;;;5095213;28;20024;-69
2022/04/21 06:55:30;;;;;;;5.13;4.10;;;16.90;81.20;;;;;;5095453;28;20501;-70
2022/04/21 06:57:57;;;;;;;5.40;3.90;;;16.90;80.30;;;;;;5095266;28;20089;-69
2022/04/21 07:00:25;;;;;;;5.63;3.88;;;16.80;78.90;;;;;;5095467;28;20372;-70
2022/04/21 07:02:52;;;;;;;6.25;4.43;;;17.90;78.90;;;;;;5095042;28;20027;-71
2022/04/21 07:05:18;;;;;;;5.25;4.20;;;19.00;73.90;;;;;;5094990;28;20077;-70
2022/04/21 07:07:44;;;;;;;4.95;4.25;;;18.60;72.20;;;;;;5095241;28;20043;-70
2022/04/21 07:10:11;;;;;;;4.75;4.10;;;18.40;73.10;;;;;;5094805;28;20031;-70
2022/04/21 07:12:37;;;;;;;5.15;4.15;;;18.40;73.30;;;;;;5094794;28;20490;-70
2022/04/21 07:15:06;;;;;;;8.18;4.32;;;18.70;74.80;;;;;;5094790;28;20073;-70
2022/04/21 07:17:32;;;;;;;5.30;4.53;;;17.90;72.10;;;;;;5094753;28;20497;-70
2022/04/21 07:19:59;;;;;;;5.28;4.00;;;18.00;73.90;;;;;;5094619;28;20035;-70
2022/04/21 07:22:25;;;;;;;8.38;4.63;;;18.80;72.80;;;;;;5093581;28;20024;-70
2022/04/21 07:24:52;;;;;;;6.47;4.10;;;17.10;72.50;;;;;;5094880;28;20389;-70
2022/04/21 07:27:17;;;;;;;7.97;4.63;;;16.60;78.20;;;;;;5094816;28;20489;-69
2022/04/21 07:29:43;;;;;;;8.70;4.55;;;16.00;81.20;;;;;;5094821;28;20025;-70
2022/04/21 07:32:09;;;;;;;5.50;4.43;;;15.80;82.60;;;;;;5093141;28;20024;-69
2022/04/21 07:34:34;;;;;;;7.38;4.55;;;16.10;81.50;;;;;;5093123;28;20024;-70
2022/04/21 07:37:00;;;;;;;8.10;4.63;;;15.80;84.60;;;;;;5094262;28;20103;-69
2022/04/21 07:39:25;;;;;;;6.55;4.30;;;16.50;82.20;;;;;;5094303;28;20028;-69
2022/04/21 07:41:51;;;;;;;4.72;4.10;;;15.90;82.20;;;;;;5094218;28;20385;-70
2022/04/21 07:44:17;;;;;;;8.95;4.95;;;16.60;83.10;;;;;;5093000;28;20034;-69
2022/04/21 07:46:42;;;;;;;7.65;5.00;;;16.30;82.70;;;;;;5093138;28;20390;-70
2022/04/21 07:53:12;;;;;;;7.90;4.78;;;15.10;88.00;;;;;;5093690;28;20406;-69
2022/04/21 07:54:39;;;;;;;9.18;4.78;;;14.90;85.90;;;;;;5092890;28;20020;-70
2022/04/21 07:57:04;;;;;;;7.63;5.05;;;14.20;91.00;;;;;;5093148;28;20064;-70
2022/04/21 07:59:30;;;;;;;5.60;4.82;;;14.30;91.00;;;;;;5093967;28;20031;-69
2022/04/21 08:01:56;;;;;;;5.78;4.82;;;13.40;92.70;;;;;;5092702;28;20099;-69
2022/04/21 08:04:22;;;;;;;9.40;5.05;;;13.70;93.30;;;;;;5094070;28;20054;-70
2022/04/21 08:06:48;;;;;;;9.50;5.10;;;13.70;94.10;;;;;;5093877;28;20028;-69
2022/04/21 08:09:13;;;;;;;11.20;5.40;;;13.60;95.80;;;;;;5092535;28;20478;-70
2022/04/21 08:11:39;;;;;;;8.77;5.30;;;13.90;95.10;;;;;;5093641;28;20028;-70
2022/04/21 08:14:04;;;;;;;7.97;4.90;;;14.20;95.30;;;;;;5093724;28;20048;-70
2022/04/21 08:16:30;;;;;;;9.85;4.20;;;14.40;93.60;;;;;;5093693;28;20030;-70
2022/04/21 08:18:58;;;;;;;8.13;5.25;;;13.90;93.30;;;;;;5093760;28;20020;-71
2022/04/21 08:21:25;;;;;;;9.00;4.57;;;13.40;94.70;;;;;;5093661;28;20476;-70
2022/04/21 08:23:51;;;;;;;9.15;4.90;;;13.20;95.70;;;;;;5093873;28;20028;-70
2022/04/21 08:34:34;;;;;;;5.97;3.80;;;13.40;95.80;;;;;;5093171;28;20023;-70
2022/04/21 08:37:01;;;;;;;5.95;4.32;;;13.30;94.30;;;;;;5092179;28;20474;-69
2022/04/21 08:39:26;;;;;;;8.60;4.30;;;13.40;95.40;;;;;;5093195;28;20040;-70
2022/04/21 08:41:57;;;;;;;8.48;4.13;;;13.40;94.60;;;;;;5093535;28;20055;-70
2022/04/21 08:44:23;;;;;;;6.43;3.90;;;13.50;94.40;;;;;;5092119;28;20486;-70
2022/04/21 08:46:49;;;;;;;7.75;4.63;;;13.50;93.80;;;;;;5093252;28;20111;-70
2022/04/21 08:49:16;;;;;;;7.60;4.40;;;13.10;93.50;;;;;;5093188;28;20390;-70
2022/04/21 08:51:42;;;;;;;7.03;4.20;;;13.10;94.10;;;;;;5092866;28;20390;-70
2022/04/21 08:54:07;;;;;;;7.15;3.88;;;13.40;94.40;;;;;;5093081;28;20047;-70
2022/04/21 08:56:33;;;;;;;8.45;4.70;;;13.80;94.40;;;;;;5092943;28;20039;-70
2022/04/21 08:58:58;;;;;;;7.18;4.78;;;14.50;93.30;;;;;;5093128;28;20644;-70
2022/04/21 09:01:25;;;;;;;8.80;4.63;;;13.90;93.00;;;;;;5093146;28;20031;-70
2022/04/21 09:03:50;;;;;;;7.80;4.45;;;15.00;93.20;;;;;;5093051;28;20028;-70
2022/04/21 09:06:16;;;;;;;8.02;4.60;;;15.80;90.60;;;;;;5093106;28;20035;-70
2022/04/21 09:08:42;;;;;;;6.97;3.78;;;16.00;91.00;;;;;;5095719;28;20498;-70
2022/04/21 09:11:11;;;;;;;5.88;3.92;;;16.00;86.20;;;;;;5097432;28;20142;-70
2022/04/21 09:13:39;;;;;;;4.70;3.70;;;15.60;85.90;;;;;;5097365;28;20539;-70
2022/04/21 09:16:07;;;;;;;5.47;3.83;;;15.40;87.50;;;;;;5097392;28;20386;-70
2022/04/21 09:18:48;;;;;;;7.43;3.67;;;15.20;88.20;;;;;;5097136;28;20470;-70
2022/04/21 09:21:15;;;;;;;6.20;3.85;;;14.70;87.90;;;;;;5096995;28;20030;-70
2022/04/21 09:23:43;;;;;;;8.73;3.75;;;14.50;90.00;;;;;;5096927;28;20474;-70
2022/04/21 09:26:12;;;;;;;10.07;4.25;;;14.20;90.30;;;;;;5096769;28;20070;-69
2022/04/21 09:28:38;;;;;;;6.55;3.95;;;13.70;91.10;;;;;;5096889;28;20557;-70
2022/04/21 09:31:06;;;;;;;9.30;3.58;;;14.10;91.90;;;;;;5096737;28;20493;-70
2022/04/21 09:33:33;;;;;;;6.20;3.67;;;13.80;91.30;;;;;;5096852;28;20474;-70
2022/04/21 09:36:02;;;;;;;9.45;3.78;;;13.70;91.80;;;;;;5096754;28;20027;-70
2022/04/21 09:38:28;;;;;;;4.95;4.15;;;14.00;93.00;;;;;;5096692;28;20435;-69
2022/04/21 09:40:54;;;;;;;9.05;4.03;;;14.00;93.80;;;;;;5096639;28;20090;-70
2022/04/21 09:43:29;;;;;;;6.95;4.55;;;13.90;92.90;;;;;;5096672;28;20024;-70
2022/04/21 09:48:53;;;;;;;10.60;4.43;;;13.60;94.00;;;;;;5127031;27;20133;-70
2022/04/21 09:51:25;;;;;;;8.38;4.68;;;13.40;93.80;;;;;;5110944;28;20031;-70
2022/04/21 09:53:58;;;;;;;7.28;4.30;;;13.30;93.10;;;;;;5110799;28;20110;-69
2022/04/21 09:56:40;;;;;;;7.33;4.50;;;13.20;93.70;;;;;;5109591;28;20036;-70
2022/04/21 09:59:09;;;;;;;6.78;4.28;;;13.20;95.10;;;;;;5109493;28;20353;-70
2022/04/21 10:01:38;;;;;;;6.43;4.95;;;13.10;94.40;;;;;;5110802;28;20498;-70
2022/04/21 10:04:06;;;;;;;8.40;4.93;;;13.40;94.40;;;;;;5110659;28;20028;-70
2022/04/21 10:06:32;;;;;;;7.78;4.90;;;13.20;94.50;;;;;;5110751;28;20090;-69
2022/04/21 10:08:58;;;;;;;5.93;4.70;;;13.30;94.80;;;;;;5110487;28;20032;-69
2022/04/21 10:11:27;;;;;;;6.88;4.85;;;13.20;94.40;;;;;;5110234;28;20532;-70
2022/04/21 10:13:54;;;;;;;6.80;5.15;;;13.20;94.30;;;;;;5110747;28;20430;-70
2022/04/21 10:16:22;;;;;;;7.57;5.47;;;13.20;94.70;;;;;;5110388;28;20015;-69
2022/04/21 10:18:50;;;;;;;8.00;4.95;;;13.70;94.70;;;;;;5110554;28;20474;-72
2022/04/21 10:21:25;;;;;;;6.90;4.40;;;13.80;93.50;;;;;;5110577;28;20406;-70
2022/04/21 10:23:52;;;;;;;8.20;4.90;;;14.10;93.80;;;;;;5109010;28;20020;-70
2022/04/21 10:26:35;;;;;;;6.03;4.32;;;14.40;93.70;;;;;;5110309;28;20041;-70
2022/04/21 10:29:10;;;;;;;7.97;5.32;;;13.90;94.00;;;;;;5110189;28;20482;-70
2022/04/21 10:31:52;;;;;;;10.50;5.78;;;13.90;93.70;;;;;;5110074;28;20474;-70
2022/04/21 10:34:42;;;;;;;6.18;4.78;;;14.10;94.70;;;;;;5110314;28;20081;-70
2022/04/21 10:37:16;;;;;;;9.68;5.22;;;14.60;94.50;;;;;;5109966;28;20115;-70
2022/04/21 10:40:06;;;;;;;10.30;5.13;;;14.50;93.20;;;;;;5108801;28;20143;-70
2022/04/21 10:45:32;;;;;;;10.05;5.60;;;14.10;93.80;;;;;;5126577;27;20147;-70
2022/04/21 10:48:08;;;;;;;9.43;5.10;;;14.10;94.60;;;;;;5111081;28;20105;-70
2022/04/21 10:50:35;;;;;;;9.98;5.20;;;14.70;94.60;;;;;;5111052;28;20016;-70
2022/04/21 11:01:19;;;;;;;8.25;5.57;;;14.90;93.30;;;;;;5109869;27;20143;-70
2022/04/21 11:04:03;;;;;;;12.65;6.15;;;14.90;94.70;;;;;;5109799;28;20028;-70
2022/04/21 11:06:47;;;;;;;10.10;5.88;;;14.60;93.70;;;;;;5111170;28;20028;-70
2022/04/21 11:09:37;;;;;;;8.35;5.95;;;14.50;94.90;;;;;;5110804;28;20024;-70
2022/04/21 11:12:04;;;;;;;11.82;6.15;;;14.30;94.20;;;;;;5110778;28;20065;-70
2022/04/21 11:14:33;;;;;;;9.57;6.30;;;13.80;95.60;;;;;;5110781;28;20020;-70
2022/04/21 11:17:00;;;;;;;9.45;5.95;;;14.30;95.90;;;;;;5110776;28;20020;-70
2022/04/21 11:22:08;;;;;;;9.23;6.13;;;14.50;96.50;;;;;;5126911;27;20132;-70
2022/04/21 11:27:34;;;;;;;10.68;6.40;;;14.90;95.00;;;;;;5126935;27;20582;-70
2022/04/21 11:30:04;;;;;;;8.50;5.82;;;15.60;94.40;;;;;;5111089;28;20375;-70
2022/04/21 11:32:30;;;;;;;8.82;5.93;;;15.70;93.10;;;;;;5109744;28;20492;-70
2022/04/21 11:35:01;;;;;;;8.63;5.82;;;15.30;93.10;;;;;;5110979;28;20020;-70
2022/04/21 11:37:47;;;;;;;9.95;6.00;;;15.60;93.30;;;;;;5110800;28;20488;-71
2022/04/21 11:40:25;;;;;;;8.68;6.10;;;16.00;93.10;;;;;;5109413;28;20015;-71
2022/04/21 11:42:52;;;;;;;10.07;6.47;;;16.00;92.30;;;;;;5109522;28;20428;-70
2022/04/21 11:45:21;;;;;;;9.57;6.32;;;15.90;92.60;;;;;;5110817;28;20028;-70
2022/04/21 11:47:47;;;;;;;8.38;5.95;;;15.60;92.50;;;;;;5109718;28;20027;-70
2022/04/21 11:50:19;;;;;;;8.75;5.88;;;15.50;92.70;;;;;;5110546;28;20089;-71
2022/04/21 11:52:46;;;;;;;8.20;5.63;;;15.50;93.50;;;;;;5110639;28;20032;-70
2022/04/21 11:55:15;;;;;;;8.90;6.10;;;15.80;94.60;;;;;;5110426;28;20474;-70
2022/04/21 11:57:42;;;;;;;10.55;6.40;;;15.80;94.00;;;;;;5109185;28;20020;-70
2022/04/21 12:00:08;;;;;;;7.88;5.90;;;15.40;93.70;;;;;;5110304;28;20077;-70
2022/04/21 12:08:07;;;;;;;10.93;6.22;;;15.50;94.60;;;;;;5110053;28;20490;-70
2022/04/21 12:10:34;;;;;;;7.35;6.43;;;15.10;94.50;;;;;;5110262;28;20051;-70
2022/04/21 12:13:01;;;;;;;9.52;6.78;;;15.20;96.00;;;;;;5110129;28;20012;-70
2022/04/21 12:15:32;;;;;;;9.75;5.47;;;15.90;94.50;;;;;;5110140;28;20488;-70
2022/04/21 12:18:01;;;;;;;8.45;5.85;;;16.10;93.00;;;;;;5110017;28;20024;-70
2022/04/21 12:20:28;;;;;;;11.77;6.00;;;15.80;93.80;;;;;;5109993;28;20057;-70
2022/04/21 12:22:55;;;;;;;12.88;6.88;;;15.80;94.70;;;;;;5110036;28;20451;-70
2022/04/21 12:25:36;;;;;;;10.50;7.00;;;15.20;94.30;;;;;;5108438;28;20081;-70
2022/04/21 12:28:03;;;;;;;8.25;6.47;;;15.40;95.30;;;;;;5108718;28;20060;-70
2022/04/21 12:30:29;;;;;;;9.63;6.28;;;15.40;95.80;;;;;;5108777;28;20470;-69
2022/04/21 12:32:55;;;;;;;10.55;7.35;;;15.70;94.80;;;;;;5110079;28;20064;-69
2022/04/21 12:35:41;;;;;;;11.10;6.63;;;16.00;95.30;;;;;;5109636;28;20440;-70
2022/04/21 12:40:52;;;;;;;8.85;6.70;;;16.80;94.50;;;;;;5095836;28;20035;-69
2022/04/21 12:43:18;;;;;;;11.50;6.45;;;16.50;93.00;;;;;;5094829;28;20020;-70
2022/04/21 12:45:44;;;;;;;8.15;6.15;;;15.90;94.30;;;;;;5095870;28;20035;-70
2022/04/21 12:48:26;;;;;;;11.52;6.68;;;15.90;95.00;;;;;;5094483;28;20467;-70
2022/04/21 12:54:25;;;;;;;11.48;6.40;;;16.30;94.00;;;;;;5096019;28;20023;-70
2022/04/21 12:56:53;;;;;;;12.07;6.88;;;16.40;94.40;;;;;;5095798;28;20497;-70
2022/04/21 12:59:18;;;;;;;9.50;6.65;;;16.70;94.50;;;;;;5095658;28;20025;-71
2022/04/21 13:01:44;;;;;;;8.73;6.10;;;16.90;94.60;;;;;;5094451;28;20034;-70
2022/04/21 13:04:09;;;;;;;8.40;6.10;;;16.80;93.70;;;;;;5095642;28;20437;-69
2022/04/21 13:06:36;;;;;;;11.38;6.45;;;16.00;94.10;;;;;;5095743;28;20119;-71
2022/04/21 13:09:02;;;;;;;10.23;6.50;;;16.30;95.10;;;;;;5095461;28;20020;-69
2022/04/21 13:11:28;;;;;;;10.95;6.50;;;16.30;94.10;;;;;;5095460;28;20035;-70
2022/04/21 13:13:54;;;;;;;9.65;6.45;;;16.30;95.20;;;;;;5095474;28;20067;-70
2022/04/21 13:16:20;;;;;;;9.98;7.05;;;16.40;95.40;;;;;;5077437;28;20024;-73
2022/04/21 13:18:46;;;;;;;9.93;6.68;;;16.60;95.00;;;;;;5095357;28;20046;-70
2022/04/21 13:23:57;;;;;;;11.00;7.28;;;17.10;93.70;;;;;;5095050;28;20020;-71
2022/04/21 13:26:28;;;;;;;11.30;7.07;;;16.40;93.40;;;;;;5094910;28;20092;-71
2022/04/21 13:28:55;;;;;;;8.77;6.38;;;16.50;94.50;;;;;;5095205;28;20020;-71
2022/04/21 13:34:06;;;;;;;8.65;6.75;;;17.40;93.30;;;;;;5093748;28;20016;-71
2022/04/21 13:36:32;;;;;;;11.60;7.40;;;17.70;93.00;;;;;;5094836;28;20103;-71
2022/04/21 13:38:58;;;;;;;8.43;6.65;;;17.40;92.90;;;;;;5094785;28;20027;-71
2022/04/21 13:41:24;;;;;;;13.15;7.35;;;17.10;93.00;;;;;;5094839;28;20056;-71
2022/04/21 13:43:49;;;;;;;13.32;7.30;;;16.80;94.50;;;;;;5094766;28;20097;-71
2022/04/21 13:46:15;;;;;;;11.88;7.20;;;16.50;94.00;;;;;;5094634;28;20056;-71
2022/04/21 13:48:41;;;;;;;7.72;6.38;;;16.30;94.70;;;;;;5075954;28;20024;-71
2022/04/21 13:51:07;;;;;;;12.25;7.80;;;16.20;94.40;;;;;;5076108;28;20118;-71
2022/04/21 13:53:32;;;;;;;10.45;7.20;;;16.50;95.10;;;;;;5093221;28;20024;-71
2022/04/21 13:55:58;;;;;;;11.25;7.05;;;16.90;95.70;;;;;;5094495;28;20029;-71
2022/04/21 13:58:23;;;;;;;9.82;6.72;;;16.80;94.50;;;;;;5094476;28;20032;-71
2022/04/21 14:00:49;;;;;;;9.52;7.03;;;16.40;94.60;;;;;;5094577;28;20073;-71
2022/04/21 14:03:14;;;;;;;12.38;6.82;;;16.70;93.70;;;;;;5076174;28;20035;-71
2022/04/21 14:05:41;;;;;;;9.40;6.78;;;16.80;95.40;;;;;;5094548;28;20412;-71
2022/04/21 14:08:09;;;;;;;11.38;6.78;;;17.30;93.90;;;;;;5094323;28;20493;-71
2022/04/21 14:10:35;;;;;;;11.70;8.05;;;17.00;93.60;;;;;;5093156;28;20459;-71
2022/04/21 14:13:01;;;;;;;11.18;7.38;;;16.70;93.00;;;;;;5093254;28;20039;-71
2022/04/21 14:15:27;;;;;;;10.32;7.38;;;16.60;93.80;;;;;;5092793;28;20028;-71
2022/04/21 14:17:54;;;;;;;11.55;7.07;;;16.70;95.50;;;;;;5094129;28;20023;-71
2022/04/21 14:20:19;;;;;;;12.27;7.43;;;17.10;94.20;;;;;;5094101;28;20103;-71
2022/04/21 14:22:45;;;;;;;13.18;7.00;;;17.20;93.00;;;;;;5094002;28;20055;-71
2022/04/21 14:25:10;;;;;;;14.13;7.30;;;17.20;93.30;;;;;;5093935;28;20290;-71
2022/04/21 14:27:36;;;;;;;16.65;7.10;;;17.50;93.40;;;;;;5093885;28;20058;-71
2022/04/21 14:30:03;;;;;;;9.18;6.45;;;17.20;92.90;;;;;;5093940;28;20021;-71
2022/04/21 14:32:29;;;;;;;7.85;6.55;;;17.30;92.60;;;;;;5092734;28;20048;-71
2022/04/21 14:34:54;;;;;;;10.70;6.47;;;17.30;92.00;;;;;;5093829;28;20043;-71
2022/04/21 14:44:04;;;;;;;10.57;6.78;;;17.10;93.10;;;;;;5093775;28;20060;-72
2022/04/21 14:45:37;;;;;;;13.23;6.93;;;18.00;91.80;;;;;;5093381;28;20483;-69
2022/04/21 14:48:04;;;;;;;12.93;6.47;;;17.80;91.40;;;;;;5075666;28;20061;-70
2022/04/21 14:50:29;;;;;;;15.68;6.10;;;18.00;92.30;;;;;;5093794;28;20083;-70
2022/04/21 14:52:55;;;;;;;13.35;6.63;;;17.80;91.50;;;;;;5093601;28;20522;-70